LiveATC.Net - Listen to live air traffic control over the Internet!


ICAO: USDD  IATA: SLY   Airport: Salekhard Airport
City: Salekhard
Country: Russia   Continent: Europe
USDD METAR Weather: USDD 150530Z 05007MPS 9999 -SHRA BKN009CB 09/07 Q1002 R04/290060 NOSIG RMK QFE746/0994
USDD Flight Activity (FlightAware)
USDD Gnd/Twr/App/Control
Feed Status: UP   Listeners: 0
Listen right in your browser - requires Flash (in browser, requires Flash)
Click here to listen with your own player (launches your MP3 player)
USDD Gnd/Twr/App/Control Audio Archives
FacilityFrequency
Salekhard Control132.300
Salekhard Ground118.800
Salekhard Info125.200
Salekhard Krug120.800
Salekhard Tower118.600
Salekhard Transit131.700


NOTICE

Unauthorized use prohibited. See LiveATC.net Terms of Service


Find LiveATC Audio Streams


Airport/ARTCC Code

Frequency Search
(e.g., 124.400, 128.75)
Site-wide search
 


Browse LiveATC Feeds
LiveATC Coverage Map
Top 50 LiveATC Feeds
Bad Weather Areas

LiveATC FAQ
Offer a LiveATC Feed
Contact LiveATC.net
Press Inquiries

LiveATC on iPhone
LiveATC on Android

Windows Phone
Windows 8/10

LiveATC Mobile
(Mobile browser)

ATC Audio Archives
Interesting Recordings

LiveATC Forums


Home Page
About LiveATC.net
Make a Donation
Terms of Use
Privacy Policy

Canadian Air Freqs

AIRMETs/SIGMETs

FAA Airport Status
Nat'l Airspace Status
Arrival Demand Charts


Server Software By:
Icecast.org
Liquidsoap